createdAt,value
2017-11-15T00:00:00.013Z,12.43
2017-11-15T00:02:28.194Z,13.98
2017-11-15T00:04:56.503Z,13.60
2017-11-15T00:07:24.699Z,15.25
2017-11-15T00:09:52.921Z,12.95
2017-11-15T00:12:21.976Z,12.30
2017-11-15T00:14:50.168Z,15.80
2017-11-15T00:17:18.373Z,14.27
2017-11-15T00:19:47.348Z,12.90
2017-11-15T00:22:34.068Z,14.60
2017-11-15T00:25:03.026Z,15.23
2017-11-15T00:27:31.246Z,13.98
2017-11-15T00:30:00.182Z,15.80
2017-11-15T00:32:28.367Z,11.73
2017-11-15T00:34:56.578Z,11.70
2017-11-15T00:37:25.550Z,10.73
2017-11-15T00:39:53.749Z,15.95
2017-11-15T00:42:22.708Z,14.40
2017-11-15T00:44:50.916Z,13.43
2017-11-15T00:47:19.879Z,14.57
2017-11-15T00:49:48.111Z,14.60
2017-11-15T00:52:16.333Z,14.23
2017-11-15T00:54:44.538Z,14.32
2017-11-15T00:57:12.769Z,14.15
2017-11-15T00:59:40.981Z,16.55
2017-11-15T01:02:09.246Z,13.62
2017-11-15T01:04:38.204Z,15.02
2017-11-15T01:07:06.495Z,14.48
2017-11-15T01:09:34.675Z,14.70
2017-11-15T01:12:03.650Z,12.88
2017-11-15T01:14:31.841Z,14.00
2017-11-15T01:17:00.819Z,16.15
2017-11-15T01:19:29.829Z,14.60
2017-11-15T01:21:58.796Z,13.85
2017-11-15T01:24:27.031Z,16.55
2017-11-15T01:26:55.248Z,14.63
2017-11-15T01:29:23.453Z,13.82
2017-11-15T01:31:52.419Z,14.68
2017-11-15T01:34:20.607Z,17.80
2017-11-15T01:36:49.600Z,13.85
2017-11-15T01:39:18.560Z,13.48
2017-11-15T01:41:47.070Z,14.38
2017-11-15T01:44:16.052Z,14.02
2017-11-15T01:46:44.252Z,13.05
2017-11-15T01:49:13.363Z,15.35
2017-11-15T01:51:41.560Z,14.80
2017-11-15T01:54:10.528Z,15.20
2017-11-15T01:56:38.743Z,15.23
2017-11-15T01:59:07.841Z,13.57
2017-11-15T02:01:38.779Z,13.00
2017-11-15T02:04:06.963Z,15.80
2017-11-15T02:06:35.183Z,14.75
2017-11-15T02:09:03.363Z,14.43
2017-11-15T02:11:31.545Z,14.95
2017-11-15T02:13:59.805Z,16.23
2017-11-15T02:16:28.030Z,13.95
2017-11-15T02:18:56.224Z,15.48
2017-11-15T02:21:25.171Z,17.33
2017-11-15T02:23:53.358Z,16.80
2017-11-15T02:26:21.547Z,16.00
2017-11-15T02:28:49.730Z,17.05
2017-11-15T02:31:18.678Z,16.33
2017-11-15T02:33:46.867Z,18.55
2017-11-15T02:36:15.052Z,16.85
2017-11-15T02:38:43.354Z,15.57
2017-11-15T02:41:12.413Z,16.02
2017-11-15T02:43:40.722Z,17.12
2017-11-15T02:46:09.660Z,16.92
2017-11-15T02:48:37.827Z,18.75
2017-11-15T02:51:06.038Z,20.80
2017-11-15T02:53:34.227Z,18.52
2017-11-15T02:56:03.198Z,19.73
2017-11-15T02:58:31.397Z,18.90
2017-11-15T03:00:59.624Z,19.17
2017-11-15T03:03:27.843Z,17.90
2017-11-15T03:05:56.873Z,18.92
2017-11-15T03:08:25.108Z,18.75
2017-11-15T03:10:54.162Z,24.25
2017-11-15T03:13:22.355Z,17.50
2017-11-15T03:15:50.539Z,18.60
2017-11-15T03:18:19.496Z,20.20
2017-11-15T03:20:47.691Z,19.05
2017-11-15T03:23:15.916Z,17.95
2017-11-15T03:25:44.097Z,21.45
2017-11-15T03:28:12.296Z,20.15
2017-11-15T03:30:41.325Z,19.87
2017-11-15T03:33:10.298Z,19.15
2017-11-15T03:35:38.495Z,17.45
2017-11-15T03:38:07.543Z,19.37
2017-11-15T03:40:35.759Z,17.67
2017-11-15T03:43:04.726Z,17.17
2017-11-15T03:45:32.923Z,18.58
2017-11-15T03:48:01.859Z,20.10
2017-11-15T03:50:30.050Z,17.02
2017-11-15T03:52:59.109Z,16.92
2017-11-15T03:55:27.296Z,16.33
2017-11-15T03:57:55.489Z,15.77
2017-11-15T04:00:23.687Z,14.40
2017-11-15T04:02:51.886Z,15.13
2017-11-15T04:05:20.110Z,14.30
2017-11-15T04:07:48.320Z,14.15
2017-11-15T04:10:17.278Z,13.70
2017-11-15T04:12:45.472Z,14.13
2017-11-15T04:15:13.679Z,13.45
2017-11-15T04:17:42.123Z,13.82
2017-11-15T04:20:10.324Z,12.07
2017-11-15T04:22:39.298Z,12.35
2017-11-15T04:25:08.260Z,12.60
2017-11-15T04:27:36.485Z,12.35
2017-11-15T04:30:05.008Z,13.57
2017-11-15T04:32:33.244Z,11.77
2017-11-15T04:35:01.523Z,13.40
2017-11-15T04:37:29.712Z,12.88
2017-11-15T04:39:57.914Z,13.05
2017-11-15T04:42:26.159Z,11.50
2017-11-15T04:44:54.392Z,12.20
2017-11-15T04:47:22.603Z,13.10
2017-11-15T04:49:50.816Z,12.37
2017-11-15T04:52:18.994Z,14.98
2017-11-15T04:54:47.191Z,14.15
2017-11-15T04:57:16.232Z,12.65
2017-11-15T04:59:44.460Z,13.62
2017-11-15T05:02:13.418Z,12.63
2017-11-15T05:04:41.614Z,11.38
2017-11-15T05:07:09.836Z,11.80
2017-11-15T05:09:38.081Z,12.98
2017-11-15T05:12:07.173Z,12.18
2017-11-15T05:14:36.609Z,11.43
2017-11-15T05:17:04.840Z,10.43
2017-11-15T05:19:33.835Z,11.23
2017-11-15T05:22:02.769Z,10.45
2017-11-15T05:24:30.981Z,10.52
2017-11-15T05:26:59.167Z,10.07
2017-11-15T05:29:27.400Z,10.15
2017-11-15T05:31:55.608Z,10.23
2017-11-15T05:34:23.792Z,9.85
2017-11-15T05:36:52.779Z,9.43
2017-11-15T05:39:21.026Z,10.23
2017-11-15T05:41:49.280Z,10.40
2017-11-15T05:44:17.465Z,8.73
2017-11-15T05:46:45.643Z,9.07
2017-11-15T05:49:13.838Z,9.95
2017-11-15T05:51:42.003Z,9.05
2017-11-15T05:54:10.208Z,9.68
2017-11-15T05:56:39.152Z,8.88
2017-11-15T05:59:07.400Z,10.05
2017-11-15T06:01:35.583Z,9.95
2017-11-15T06:04:03.789Z,9.68
2017-11-15T06:06:31.961Z,9.77
2017-11-15T06:09:00.143Z,9.25
2017-11-15T06:11:28.392Z,10.85
2017-11-15T06:13:57.378Z,9.27
2017-11-15T06:16:25.718Z,10.02
2017-11-15T06:18:53.928Z,10.07
2017-11-15T06:21:22.201Z,10.45
2017-11-15T06:23:50.402Z,9.77
2017-11-15T06:26:18.578Z,9.82
2017-11-15T06:28:46.739Z,10.30
2017-11-15T06:31:14.968Z,10.90
2017-11-15T06:33:43.981Z,10.73
2017-11-15T06:36:12.178Z,10.02
2017-11-15T06:38:40.325Z,11.75
2017-11-15T06:41:08.521Z,11.70
2017-11-15T06:43:36.723Z,11.57
2017-11-15T06:46:05.687Z,13.48
2017-11-15T06:48:33.922Z,11.32
2017-11-15T06:51:02.121Z,11.60
2017-11-15T06:53:30.313Z,11.98
2017-11-15T06:55:58.639Z,11.80
2017-11-15T06:58:26.832Z,11.90
2017-11-15T07:00:55.019Z,14.80
2017-11-15T07:03:23.253Z,11.63
2017-11-15T07:05:52.204Z,12.63
2017-11-15T07:08:20.470Z,11.32
2017-11-15T07:10:48.676Z,12.95
2017-11-15T07:13:17.636Z,12.02
2017-11-15T07:15:45.827Z,11.85
2017-11-15T07:18:14.024Z,11.65
2017-11-15T07:20:42.232Z,11.60
2017-11-15T07:23:10.420Z,11.05
2017-11-15T07:25:38.666Z,10.45
2017-11-15T07:28:06.951Z,10.35
2017-11-15T07:30:35.133Z,11.00
2017-11-15T07:33:03.340Z,10.65
2017-11-15T07:35:31.533Z,10.30
2017-11-15T07:37:59.748Z,10.20
2017-11-15T07:40:27.938Z,10.55
2017-11-15T07:42:56.136Z,11.02
2017-11-15T07:45:25.134Z,9.30
2017-11-15T07:47:53.310Z,9.20
2017-11-15T07:50:21.515Z,9.23
2017-11-15T07:52:50.226Z,9.95
2017-11-15T07:55:18.431Z,9.52
2017-11-15T07:57:46.633Z,9.90
2017-11-15T08:00:15.856Z,8.75
2017-11-15T08:02:44.099Z,8.50
2017-11-15T08:05:12.391Z,8.13
2017-11-15T08:07:41.422Z,8.05
2017-11-15T08:10:09.677Z,7.50
2017-11-15T08:12:38.295Z,8.95
2017-11-15T08:15:06.706Z,8.23
2017-11-15T08:17:35.659Z,7.80
2017-11-15T08:20:03.848Z,9.73
2017-11-15T08:22:32.038Z,8.93
2017-11-15T08:25:00.264Z,7.70
2017-11-15T08:27:28.482Z,8.65
2017-11-15T08:29:56.667Z,10.23
2017-11-15T08:32:25.615Z,9.32
2017-11-15T08:34:53.811Z,10.55
2017-11-15T08:37:22.005Z,9.85
2017-11-15T08:39:51.161Z,8.55
2017-11-15T08:42:19.355Z,10.82
2017-11-15T08:44:47.546Z,10.43
2017-11-15T08:47:16.483Z,11.07
2017-11-15T08:49:44.659Z,10.32
2017-11-15T08:52:12.868Z,10.40
2017-11-15T08:54:41.073Z,10.55
2017-11-15T08:57:09.256Z,10.02
2017-11-15T08:59:37.443Z,9.20
2017-11-15T09:02:05.729Z,9.75
2017-11-15T09:04:34.090Z,8.02
2017-11-15T09:07:02.265Z,8.98
2017-11-15T09:09:30.659Z,10.20
2017-11-15T09:11:58.836Z,8.43
2017-11-15T09:14:27.029Z,10.68
2017-11-15T09:16:55.277Z,10.10
2017-11-15T09:19:23.519Z,9.18
2017-11-15T09:21:52.655Z,10.18
2017-11-15T09:24:20.828Z,8.93
2017-11-15T09:26:49.067Z,9.88
2017-11-15T09:29:17.354Z,9.07
2017-11-15T09:31:45.576Z,9.77
2017-11-15T09:34:13.752Z,8.73
2017-11-15T09:36:41.932Z,8.77
2017-11-15T09:39:10.101Z,8.38
2017-11-15T09:41:38.290Z,8.73
2017-11-15T09:44:06.481Z,9.23
2017-11-15T09:46:34.708Z,7.93
2017-11-15T09:49:02.925Z,8.68
2017-11-15T09:51:31.132Z,8.85
2017-11-15T09:53:59.318Z,7.75
2017-11-15T09:56:27.508Z,8.23
2017-11-15T09:58:55.708Z,9.30
2017-11-15T10:01:24.703Z,7.60
2017-11-15T10:03:52.972Z,7.78
2017-11-15T10:06:21.926Z,7.40
2017-11-15T10:08:50.156Z,8.75
2017-11-15T10:11:18.417Z,10.18
2017-11-15T10:13:47.450Z,7.95
2017-11-15T10:16:15.744Z,8.93
2017-11-15T10:18:43.944Z,8.57
2017-11-15T10:21:12.102Z,8.05
2017-11-15T10:23:40.274Z,7.85
2017-11-15T10:26:08.484Z,8.07
2017-11-15T10:28:37.435Z,8.45
2017-11-15T10:31:05.637Z,8.57
2017-11-15T10:33:33.814Z,8.65
2017-11-15T10:36:02.752Z,8.60
2017-11-15T10:38:30.967Z,9.10
2017-11-15T10:40:59.984Z,8.20
2017-11-15T10:43:28.184Z,9.30
2017-11-15T10:45:57.352Z,10.20
2017-11-15T10:48:25.552Z,10.98
2017-11-15T10:50:53.732Z,10.23
2017-11-15T10:53:22.104Z,11.48
2017-11-15T10:55:50.301Z,11.82
2017-11-15T10:58:18.500Z,13.05
2017-11-15T11:00:46.749Z,12.55
2017-11-15T11:03:14.940Z,11.35
2017-11-15T11:05:43.228Z,14.80
2017-11-15T11:08:11.412Z,13.18
2017-11-15T11:10:40.391Z,14.68
2017-11-15T11:13:08.715Z,12.65
2017-11-15T11:15:37.672Z,13.15
2017-11-15T11:18:06.640Z,13.62
2017-11-15T11:20:34.836Z,13.25
2017-11-15T11:23:03.783Z,14.10
2017-11-15T11:25:32.023Z,14.57
2017-11-15T11:28:00.247Z,16.55
2017-11-15T11:30:28.491Z,14.77
2017-11-15T11:32:56.710Z,14.85
2017-11-15T11:35:24.947Z,13.70
2017-11-15T11:37:56.568Z,14.95
2017-11-15T11:40:24.763Z,15.05
2017-11-15T11:42:53.716Z,15.40
2017-11-15T11:45:22.765Z,15.77
2017-11-15T11:47:51.008Z,14.32
2017-11-15T11:50:19.166Z,15.20
2017-11-15T11:52:47.364Z,15.20
2017-11-15T11:55:15.563Z,16.80
2017-11-15T11:57:43.856Z,13.50
2017-11-15T12:00:12.068Z,13.93
2017-11-15T12:02:40.242Z,13.73
2017-11-15T12:05:08.472Z,14.43
2017-11-15T12:07:36.692Z,12.98
2017-11-15T12:10:04.911Z,16.23
2017-11-15T12:12:33.100Z,12.75
2017-11-15T12:15:02.108Z,11.98
2017-11-15T12:17:31.074Z,12.05
2017-11-15T12:19:59.412Z,13.70
2017-11-15T12:22:27.620Z,12.70
2017-11-15T12:24:55.804Z,13.38
2017-11-15T12:27:24.040Z,12.25
2017-11-15T12:29:52.276Z,12.30
2017-11-15T12:32:21.235Z,13.68
2017-11-15T12:34:49.440Z,14.50
2017-11-15T12:37:18.396Z,13.25
2017-11-15T12:39:46.618Z,13.50
2017-11-15T12:42:14.825Z,13.13
2017-11-15T12:44:43.078Z,14.07
2017-11-15T12:47:11.248Z,10.85
2017-11-15T12:49:39.443Z,12.63
2017-11-15T12:52:07.651Z,11.07
2017-11-15T12:54:35.859Z,10.65
2017-11-15T12:57:04.046Z,12.25
2017-11-15T12:59:32.243Z,12.00
2017-11-15T13:02:01.872Z,10.90
2017-11-15T13:04:30.071Z,10.65
2017-11-15T13:06:59.066Z,11.23
2017-11-15T13:09:28.017Z,9.82
2017-11-15T13:11:56.259Z,9.98
2017-11-15T13:14:24.441Z,10.88
2017-11-15T13:16:52.739Z,10.48
2017-11-15T13:19:21.020Z,10.02
2017-11-15T13:21:49.246Z,11.80
2017-11-15T13:24:17.443Z,10.07
2017-11-15T13:26:45.631Z,10.10
2017-11-15T13:29:13.813Z,9.90
2017-11-15T13:31:42.043Z,8.43
2017-11-15T13:34:10.255Z,8.73
2017-11-15T13:36:38.828Z,8.85
2017-11-15T13:39:07.014Z,8.30
2017-11-15T13:41:35.604Z,8.50
2017-11-15T13:44:03.825Z,8.50
2017-11-15T13:46:32.889Z,8.38
2017-11-15T13:49:01.093Z,8.80
2017-11-15T13:51:29.305Z,7.53
2017-11-15T13:53:57.488Z,8.10
2017-11-15T13:56:25.832Z,7.12
2017-11-15T13:58:54.002Z,7.62
2017-11-15T14:01:22.226Z,5.82
2017-11-15T14:03:50.451Z,7.70
2017-11-15T14:06:18.634Z,7.05
2017-11-15T14:08:46.950Z,7.55
2017-11-15T14:11:15.221Z,7.10
2017-11-15T14:13:43.480Z,7.90
2017-11-15T14:16:11.882Z,6.78
2017-11-15T14:18:40.146Z,8.25
2017-11-15T14:21:08.359Z,7.07
2017-11-15T14:23:36.607Z,6.25
2017-11-15T14:26:04.797Z,6.82
2017-11-15T14:28:33.764Z,6.57
2017-11-15T14:31:01.936Z,6.40
2017-11-15T14:33:30.116Z,6.18
2017-11-15T14:35:58.293Z,6.25
2017-11-15T14:38:26.481Z,5.82
2017-11-15T14:40:55.481Z,6.32
2017-11-15T14:43:23.684Z,6.65
2017-11-15T14:45:51.875Z,6.43
2017-11-15T14:48:20.867Z,7.28
2017-11-15T14:50:49.081Z,7.25
2017-11-15T14:53:18.141Z,6.57
2017-11-15T14:55:46.309Z,6.90
2017-11-15T14:58:14.547Z,6.95
2017-11-15T15:00:42.763Z,6.20
2017-11-15T15:03:10.963Z,7.97
2017-11-15T15:05:39.936Z,7.28
2017-11-15T15:08:08.209Z,7.10
2017-11-15T15:10:36.397Z,7.35
2017-11-15T15:13:04.716Z,8.13
2017-11-15T15:25:17.920Z,8.50
2017-11-15T15:27:46.145Z,6.57
2017-11-15T15:30:15.103Z,8.65
2017-11-15T15:32:43.472Z,8.88
2017-11-15T15:35:11.761Z,7.93
2017-11-15T15:37:40.035Z,8.55
2017-11-15T15:40:09.751Z,9.07
2017-11-15T15:42:37.937Z,7.07
2017-11-15T15:45:06.275Z,9.05
2017-11-15T15:47:34.488Z,6.87
2017-11-15T15:50:02.769Z,8.38
2017-11-15T15:52:31.734Z,8.30
2017-11-15T15:54:59.973Z,8.98
2017-11-15T15:57:28.201Z,7.72
2017-11-15T15:59:57.159Z,8.50
2017-11-15T16:02:25.384Z,9.65
2017-11-15T16:04:53.577Z,8.60
2017-11-15T16:07:21.842Z,8.82
2017-11-15T16:09:50.059Z,8.40
2017-11-15T16:12:18.252Z,8.20
2017-11-15T16:14:46.451Z,9.10
2017-11-15T16:17:14.682Z,8.23
2017-11-15T16:19:42.892Z,7.90
2017-11-15T16:22:11.865Z,8.30
2017-11-15T16:24:40.133Z,9.40
2017-11-15T16:27:08.345Z,8.50
2017-11-15T16:29:37.335Z,7.85
2017-11-15T16:32:06.440Z,7.87
2017-11-15T16:34:34.639Z,8.65
2017-11-15T16:37:02.864Z,8.50
2017-11-15T16:39:31.896Z,10.13
2017-11-15T16:42:00.124Z,8.45
2017-11-15T16:44:28.325Z,10.48
2017-11-15T16:46:56.516Z,11.02
2017-11-15T16:49:24.696Z,8.52
2017-11-15T16:51:52.866Z,7.95
2017-11-15T16:54:21.083Z,8.73
2017-11-15T16:56:50.054Z,8.32
2017-11-15T16:59:18.247Z,9.90
2017-11-15T17:01:46.453Z,9.85
2017-11-15T17:04:15.441Z,8.70
2017-11-15T17:06:44.413Z,8.85
2017-11-15T17:09:12.614Z,8.80
2017-11-15T17:11:40.793Z,8.77
2017-11-15T17:14:09.931Z,10.05
2017-11-15T17:16:38.160Z,9.77
2017-11-15T17:19:06.355Z,8.80
2017-11-15T17:21:34.541Z,10.32
2017-11-15T17:24:02.718Z,9.00
2017-11-15T17:26:30.918Z,8.93
2017-11-15T17:28:59.133Z,8.90
2017-11-15T17:31:27.332Z,11.35
2017-11-15T17:33:55.524Z,11.07
2017-11-15T17:36:23.757Z,13.00
2017-11-15T17:38:51.933Z,11.00
2017-11-15T17:41:20.123Z,11.25
2017-11-15T17:43:48.325Z,10.57
2017-11-15T17:46:16.559Z,12.02
2017-11-15T17:51:39.147Z,12.25
2017-11-15T17:54:07.503Z,11.18
2017-11-15T17:56:35.740Z,10.93
2017-11-15T17:59:04.703Z,10.75
2017-11-15T18:01:32.905Z,11.15
2017-11-15T18:04:02.001Z,11.48
2017-11-15T18:06:30.981Z,11.02
2017-11-15T18:08:59.988Z,14.07
2017-11-15T18:11:28.981Z,12.68
2017-11-15T18:13:57.204Z,11.40
2017-11-15T18:16:25.399Z,12.15
2017-11-15T18:18:54.040Z,12.50
2017-11-15T18:21:22.323Z,12.52
2017-11-15T18:23:50.516Z,13.68
2017-11-15T18:26:18.732Z,11.77
2017-11-15T18:28:47.720Z,11.63
2017-11-15T18:31:16.713Z,12.55
2017-11-15T18:33:44.931Z,13.18
2017-11-15T18:36:13.894Z,13.65
2017-11-15T18:38:42.166Z,10.93
2017-11-15T18:41:11.389Z,11.10
2017-11-15T18:43:39.587Z,11.70
2017-11-15T18:46:07.789Z,10.80
2017-11-15T18:48:36.739Z,10.70
2017-11-15T18:51:04.986Z,10.50
2017-11-15T18:53:33.226Z,11.82
2017-11-15T18:56:02.197Z,12.48
2017-11-15T18:58:30.446Z,11.75
2017-11-15T19:00:58.635Z,10.27
2017-11-15T19:03:26.857Z,12.05
2017-11-15T19:05:55.108Z,11.48
2017-11-15T19:08:23.400Z,11.20
2017-11-15T19:10:52.375Z,10.88
2017-11-15T19:13:20.581Z,12.15
2017-11-15T19:15:48.792Z,12.90
2017-11-15T19:18:17.074Z,11.88
2017-11-15T19:20:45.348Z,11.65
2017-11-15T19:23:13.540Z,12.48
2017-11-15T19:25:41.818Z,12.30
2017-11-15T19:28:10.399Z,12.60
2017-11-15T19:30:38.814Z,11.23
2017-11-15T19:33:07.056Z,12.48
2017-11-15T19:35:35.341Z,13.30
2017-11-15T19:38:03.579Z,11.93
2017-11-15T19:40:31.938Z,16.48
2017-11-15T19:43:00.211Z,11.05
2017-11-15T19:45:28.585Z,13.35
2017-11-15T19:47:56.866Z,11.90
2017-11-15T19:50:25.156Z,12.70
2017-11-15T19:52:53.387Z,12.52
2017-11-15T19:55:22.403Z,14.43
2017-11-15T19:57:50.666Z,13.65
2017-11-15T20:00:18.880Z,12.82
2017-11-15T20:02:47.104Z,12.00
2017-11-15T20:05:15.323Z,14.00
2017-11-15T20:07:43.549Z,13.85
2017-11-15T20:10:12.686Z,14.85
2017-11-15T20:12:41.053Z,14.77
2017-11-15T20:15:09.291Z,14.63
2017-11-15T20:17:38.292Z,16.12
2017-11-15T20:20:06.609Z,15.20
2017-11-15T20:22:34.914Z,15.13
2017-11-15T20:25:03.213Z,16.00
2017-11-15T20:27:32.362Z,15.07
2017-11-15T20:30:00.640Z,16.10
2017-11-15T20:32:28.863Z,13.95
2017-11-15T20:34:57.108Z,14.60
2017-11-15T20:37:25.299Z,16.23
2017-11-15T20:39:54.265Z,14.85
2017-11-15T20:42:22.592Z,14.55
2017-11-15T20:44:50.862Z,14.87
2017-11-15T20:47:19.062Z,15.70
2017-11-15T20:49:47.312Z,15.05
2017-11-15T20:52:15.524Z,14.45
2017-11-15T20:54:43.772Z,15.48
2017-11-15T20:57:12.082Z,14.32
2017-11-15T20:59:40.341Z,15.07
2017-11-15T21:02:08.642Z,15.07
2017-11-15T21:04:36.847Z,14.32
2017-11-15T21:07:06.664Z,14.70
2017-11-15T21:09:34.856Z,13.15
2017-11-15T21:12:03.096Z,14.30
2017-11-15T21:14:32.136Z,13.93
2017-11-15T21:17:00.478Z,13.40
2017-11-15T21:19:29.440Z,13.77
2017-11-15T21:21:58.625Z,22.92
2017-11-15T21:24:26.863Z,15.05
2017-11-15T21:26:55.174Z,16.37
2017-11-15T21:29:23.388Z,15.23
2017-11-15T21:31:52.403Z,14.35
2017-11-15T21:34:20.635Z,18.87
2017-11-15T21:36:48.876Z,12.90
2017-11-15T21:39:17.103Z,14.10
2017-11-15T21:41:46.103Z,18.37
2017-11-15T21:44:14.355Z,19.67
2017-11-15T21:46:42.547Z,18.10
2017-11-15T21:49:11.511Z,16.10
2017-11-15T21:51:39.854Z,16.08
2017-11-15T21:54:08.095Z,14.70
2017-11-15T21:56:36.284Z,17.37
2017-11-15T21:59:04.500Z,13.85
2017-11-15T22:01:32.712Z,15.00
2017-11-15T22:04:00.928Z,18.15
2017-11-15T22:06:29.159Z,14.43
2017-11-15T22:08:58.217Z,14.50
2017-11-15T22:11:26.406Z,16.48
2017-11-15T22:13:55.387Z,15.70
2017-11-15T22:16:23.559Z,16.12
2017-11-15T22:18:51.785Z,15.35
2017-11-15T22:21:20.011Z,15.65
2017-11-15T22:23:48.224Z,15.65
2017-11-15T22:26:17.215Z,14.10
2017-11-15T22:28:45.385Z,14.13
2017-11-15T22:31:13.605Z,14.38
2017-11-15T22:33:41.848Z,19.90
2017-11-15T22:36:10.074Z,14.77
2017-11-15T22:38:39.353Z,14.90
2017-11-15T22:41:07.556Z,15.77
2017-11-15T22:43:36.557Z,16.55
2017-11-15T22:46:04.925Z,15.68
2017-11-15T22:48:33.908Z,16.65
2017-11-15T22:51:03.231Z,16.48
2017-11-15T22:53:31.434Z,18.05
2017-11-15T22:55:59.815Z,19.67
2017-11-15T22:58:28.086Z,19.33
2017-11-15T23:00:56.340Z,16.95
2017-11-15T23:03:24.576Z,17.98
2017-11-15T23:05:54.133Z,17.85
